createdAt,value
2018-10-05T00:01:02.344Z,4.07
2018-10-05T00:03:30.132Z,4.03
2018-10-05T00:05:57.900Z,3.80
2018-10-05T00:08:25.749Z,3.97
2018-10-05T00:10:53.533Z,4.47
2018-10-05T00:13:21.386Z,4.47
2018-10-05T00:15:49.405Z,3.90
2018-10-05T00:18:17.209Z,4.00
2018-10-05T00:20:44.976Z,4.20
2018-10-05T00:23:12.779Z,4.43
2018-10-05T00:25:40.598Z,3.70
2018-10-05T00:28:08.337Z,4.03
2018-10-05T00:30:36.109Z,4.00
2018-10-05T00:33:03.881Z,3.97
2018-10-05T00:35:31.677Z,3.90
2018-10-05T00:37:59.449Z,4.00
2018-10-05T00:40:27.261Z,3.90
2018-10-05T00:42:55.097Z,3.57
2018-10-05T00:45:22.960Z,3.73
2018-10-05T00:47:50.992Z,3.70
2018-10-05T00:50:18.793Z,3.53
2018-10-05T00:52:46.716Z,3.30
2018-10-05T00:55:14.645Z,3.80
2018-10-05T00:57:42.677Z,3.83
2018-10-05T01:00:10.505Z,4.00
2018-10-05T01:02:38.281Z,4.00
2018-10-05T01:05:06.165Z,4.23
2018-10-05T01:07:34.672Z,4.80
2018-10-05T01:10:02.536Z,4.60
2018-10-05T01:12:30.348Z,4.47
2018-10-05T01:14:58.113Z,4.60
2018-10-05T01:17:25.904Z,4.07
2018-10-05T01:19:53.761Z,4.00
2018-10-05T01:22:21.584Z,3.80
2018-10-05T01:24:49.374Z,4.10
2018-10-05T01:27:17.170Z,3.93
2018-10-05T01:29:44.965Z,4.30
2018-10-05T01:32:12.960Z,4.23
2018-10-05T01:34:40.798Z,4.00
2018-10-05T01:37:08.661Z,4.10
2018-10-05T01:39:36.486Z,3.87
2018-10-05T01:42:04.299Z,3.80
2018-10-05T01:44:32.085Z,3.80
2018-10-05T01:46:59.845Z,3.47
2018-10-05T01:49:27.613Z,3.57
2018-10-05T01:51:55.386Z,3.63
2018-10-05T01:54:24.430Z,3.83
2018-10-05T01:56:52.212Z,3.50
2018-10-05T01:59:20.085Z,3.53
2018-10-05T02:01:47.885Z,3.63
2018-10-05T02:04:15.686Z,3.70
2018-10-05T02:06:43.538Z,3.80
2018-10-05T02:09:11.349Z,3.90
2018-10-05T02:11:39.238Z,4.23
2018-10-05T02:14:07.084Z,3.97
2018-10-05T02:16:34.867Z,3.33
2018-10-05T02:19:02.751Z,3.57
2018-10-05T02:21:30.537Z,3.60
2018-10-05T02:23:58.334Z,3.77
2018-10-05T02:26:26.168Z,3.37
2018-10-05T02:28:53.997Z,3.47
2018-10-05T02:31:21.825Z,3.80
2018-10-05T02:33:49.669Z,3.37
2018-10-05T02:36:17.426Z,3.63
2018-10-05T02:38:45.233Z,3.97
2018-10-05T02:41:13.036Z,3.80
2018-10-05T02:43:40.847Z,3.67
2018-10-05T02:46:08.765Z,3.50
2018-10-05T02:48:36.691Z,3.60
2018-10-05T02:51:04.684Z,3.80
2018-10-05T02:53:32.626Z,3.57
2018-10-05T02:56:00.593Z,3.80
2018-10-05T02:58:28.339Z,3.67
2018-10-05T03:01:07.346Z,3.80
2018-10-05T03:03:35.216Z,3.47
2018-10-05T03:06:02.980Z,3.50
2018-10-05T03:08:30.828Z,3.57
2018-10-05T03:10:58.640Z,3.53
2018-10-05T03:13:26.445Z,3.67
2018-10-05T03:15:54.199Z,3.60
2018-10-05T03:18:21.961Z,3.47
2018-10-05T03:20:49.729Z,3.70
2018-10-05T03:23:17.542Z,3.57
2018-10-05T03:25:45.290Z,3.60
2018-10-05T03:28:13.068Z,3.70
2018-10-05T03:30:40.868Z,3.73
2018-10-05T03:33:08.673Z,3.70
2018-10-05T03:35:36.556Z,3.37
2018-10-05T03:38:04.340Z,3.20
2018-10-05T03:40:32.119Z,3.63
2018-10-05T03:42:59.913Z,3.40
2018-10-05T03:45:27.729Z,3.80
2018-10-05T03:47:55.498Z,3.37
2018-10-05T03:50:23.267Z,3.53
2018-10-05T03:52:51.052Z,3.40
2018-10-05T03:55:18.848Z,3.90
2018-10-05T03:57:46.686Z,3.30
2018-10-05T04:00:14.551Z,3.73
2018-10-05T04:02:42.317Z,3.23
2018-10-05T04:05:10.241Z,3.43
2018-10-05T04:07:38.005Z,3.33
2018-10-05T04:10:05.870Z,3.17
2018-10-05T04:12:33.625Z,3.20
2018-10-05T04:15:01.455Z,3.40
2018-10-05T04:17:29.202Z,3.13
2018-10-05T04:19:56.966Z,3.27
2018-10-05T04:22:32.307Z,3.30
2018-10-05T04:25:00.097Z,3.30
2018-10-05T04:27:27.868Z,3.20
2018-10-05T04:29:56.272Z,2.97
2018-10-05T04:32:24.268Z,3.27
2018-10-05T04:34:52.052Z,3.63
2018-10-05T04:37:19.825Z,3.50
2018-10-05T04:39:47.683Z,3.33
2018-10-05T04:42:15.496Z,3.80
2018-10-05T04:44:43.331Z,3.73
2018-10-05T04:47:11.154Z,3.83
2018-10-05T04:49:38.965Z,3.50
2018-10-05T04:52:06.777Z,4.07
2018-10-05T04:54:34.549Z,3.30
2018-10-05T04:57:02.385Z,3.40
2018-10-05T04:59:30.129Z,3.17
2018-10-05T05:01:59.336Z,3.23
2018-10-05T05:04:27.125Z,3.13
2018-10-05T05:06:54.885Z,3.60
2018-10-05T05:09:22.692Z,3.30
2018-10-05T05:11:50.584Z,3.27
2018-10-05T05:14:18.390Z,2.90
2018-10-05T05:16:46.153Z,3.33
2018-10-05T05:19:13.968Z,3.13
2018-10-05T05:21:41.785Z,3.10
2018-10-05T05:24:09.609Z,3.00
2018-10-05T05:26:37.425Z,3.03
2018-10-05T05:29:05.669Z,3.10
2018-10-05T05:31:33.712Z,2.90
2018-10-05T05:34:01.648Z,3.00
2018-10-05T05:36:29.420Z,2.80
2018-10-05T05:38:57.249Z,2.80
2018-10-05T05:41:25.105Z,3.10
2018-10-05T05:43:54.589Z,3.57
2018-10-05T05:46:22.396Z,3.70
2018-10-05T05:48:50.249Z,4.43
2018-10-05T05:51:18.201Z,4.03
2018-10-05T05:53:46.045Z,4.30
2018-10-05T05:56:13.877Z,4.30
2018-10-05T05:58:42.334Z,4.80
2018-10-05T06:01:10.216Z,5.10
2018-10-05T06:03:38.623Z,5.20
2018-10-05T06:06:06.487Z,5.03
2018-10-05T06:08:34.308Z,4.10
2018-10-05T06:11:02.165Z,3.00
2018-10-05T06:13:29.909Z,2.70
2018-10-05T06:15:58.009Z,3.10
2018-10-05T06:18:25.784Z,2.90
2018-10-05T06:20:53.568Z,2.90
2018-10-05T06:23:22.181Z,3.37
2018-10-05T06:25:49.992Z,3.47
2018-10-05T06:28:17.811Z,4.80
2018-10-05T06:30:46.912Z,6.47
2018-10-05T06:33:19.952Z,4.20
2018-10-05T06:35:47.721Z,3.57
2018-10-05T06:38:15.506Z,5.77
2018-10-05T06:40:43.380Z,7.60
2018-10-05T06:43:11.128Z,7.00
2018-10-05T06:45:38.981Z,5.73
2018-10-05T06:48:06.795Z,5.13
2018-10-05T06:50:34.589Z,5.80
2018-10-05T06:53:02.402Z,6.27
2018-10-05T06:55:30.214Z,5.60
2018-10-05T06:57:57.998Z,6.03
2018-10-05T07:00:25.781Z,5.20
2018-10-05T07:02:53.614Z,5.40
2018-10-05T07:05:21.436Z,5.47
2018-10-05T07:07:49.555Z,6.23
2018-10-05T07:10:17.548Z,7.00
2018-10-05T07:12:45.344Z,7.53
2018-10-05T07:15:13.165Z,8.10
2018-10-05T07:17:40.951Z,8.70
2018-10-05T07:20:08.768Z,8.67
2018-10-05T07:22:36.705Z,8.90
2018-10-05T07:25:04.673Z,8.57
2018-10-05T07:27:32.537Z,8.10
2018-10-05T07:30:00.317Z,6.50
2018-10-05T07:32:28.100Z,7.10
2018-10-05T07:34:55.863Z,6.70
2018-10-05T07:37:23.623Z,6.73
2018-10-05T07:39:51.401Z,7.50
2018-10-05T07:42:19.164Z,7.87
2018-10-05T07:44:46.977Z,7.20
2018-10-05T07:47:14.745Z,7.07
2018-10-05T07:49:42.546Z,6.93
2018-10-05T07:52:10.313Z,7.00
2018-10-05T07:54:38.115Z,6.47
2018-10-05T07:57:06.264Z,5.90
2018-10-05T07:59:34.146Z,6.40
2018-10-05T08:02:02.130Z,6.80
2018-10-05T08:04:29.925Z,6.77
2018-10-05T08:06:57.719Z,6.97
2018-10-05T08:09:25.489Z,6.97
2018-10-05T08:11:53.292Z,6.70
2018-10-05T08:14:21.274Z,7.27
2018-10-05T08:16:49.037Z,7.50
2018-10-05T08:19:16.847Z,7.33
2018-10-05T08:21:44.694Z,6.90
2018-10-05T08:24:12.456Z,7.70
2018-10-05T08:26:40.329Z,6.90
2018-10-05T08:29:08.169Z,6.77
2018-10-05T08:31:36.205Z,6.37
2018-10-05T08:34:04.220Z,5.97
2018-10-05T08:36:31.989Z,6.30
2018-10-05T08:38:59.785Z,6.17
2018-10-05T08:41:27.572Z,6.70
2018-10-05T08:43:55.425Z,6.05
2018-10-05T08:46:23.222Z,5.42
2018-10-05T08:48:50.989Z,5.78
2018-10-05T08:51:18.796Z,7.10
2018-10-05T08:53:46.589Z,7.05
2018-10-05T08:56:14.365Z,7.70
2018-10-05T08:58:42.246Z,7.35
2018-10-05T09:01:10.011Z,7.20
2018-10-05T09:03:37.825Z,7.62
2018-10-05T09:06:05.637Z,7.97
2018-10-05T09:08:33.445Z,7.30
2018-10-05T09:11:01.225Z,7.87
2018-10-05T09:13:29.004Z,7.92
2018-10-05T09:15:56.785Z,7.90
2018-10-05T09:18:24.537Z,7.78
2018-10-05T09:20:52.313Z,8.03
2018-10-05T09:23:20.102Z,7.67
2018-10-05T09:25:48.599Z,7.62
2018-10-05T09:28:16.456Z,7.85
2018-10-05T09:30:44.346Z,8.28
2018-10-05T09:33:12.098Z,8.73
2018-10-05T09:35:39.988Z,8.33
2018-10-05T09:38:07.821Z,7.83
2018-10-05T09:40:35.656Z,8.30
2018-10-05T09:43:03.562Z,8.48
2018-10-05T09:45:31.389Z,8.48
2018-10-05T09:47:59.209Z,8.68
2018-10-05T09:50:26.973Z,9.30
2018-10-05T09:52:54.766Z,9.48
2018-10-05T09:55:22.529Z,10.35
2018-10-05T09:57:50.337Z,9.75
2018-10-05T10:00:23.524Z,10.53
2018-10-05T10:02:56.765Z,10.50
2018-10-05T10:05:24.577Z,10.30
2018-10-05T10:07:52.593Z,10.58
2018-10-05T10:10:20.978Z,12.15
2018-10-05T10:12:48.736Z,11.15
2018-10-05T10:15:16.613Z,10.78
2018-10-05T10:17:44.469Z,11.25
2018-10-05T10:20:12.535Z,12.23
2018-10-05T10:22:40.392Z,12.47
2018-10-05T10:25:08.653Z,12.40
2018-10-05T10:27:36.530Z,11.68
2018-10-05T10:30:04.426Z,13.25
2018-10-05T10:32:32.206Z,12.18
2018-10-05T10:34:59.949Z,13.25
2018-10-05T10:37:27.702Z,13.18
2018-10-05T10:39:55.567Z,13.08
2018-10-05T10:42:23.341Z,13.62
2018-10-05T10:44:51.117Z,12.98
2018-10-05T10:47:18.880Z,13.05
2018-10-05T10:49:46.671Z,13.55
2018-10-05T10:52:14.424Z,13.38
2018-10-05T10:54:42.169Z,13.40
2018-10-05T10:57:10.005Z,13.72
2018-10-05T10:59:37.819Z,13.25
2018-10-05T11:02:05.806Z,12.68
2018-10-05T11:04:33.676Z,13.58
2018-10-05T11:07:01.429Z,13.68
2018-10-05T11:09:29.251Z,12.10
2018-10-05T11:11:57.250Z,13.08
2018-10-05T11:14:24.990Z,13.35
2018-10-05T11:16:52.780Z,12.50
2018-10-05T11:19:20.580Z,13.30
2018-10-05T11:21:48.592Z,12.75
2018-10-05T11:24:16.388Z,12.95
2018-10-05T11:26:44.185Z,12.80
2018-10-05T11:29:13.369Z,13.08
2018-10-05T11:31:41.213Z,13.35
2018-10-05T11:34:08.989Z,13.00
2018-10-05T11:36:37.017Z,13.68
2018-10-05T11:39:05.703Z,12.60
2018-10-05T11:41:33.510Z,13.25
2018-10-05T11:44:01.417Z,13.85
2018-10-05T11:46:29.274Z,14.38
2018-10-05T11:48:57.044Z,13.08
2018-10-05T11:51:24.837Z,12.85
2018-10-05T11:53:52.628Z,12.37
2018-10-05T11:56:20.432Z,11.40
2018-10-05T11:58:48.261Z,12.13
2018-10-05T12:01:16.077Z,11.53
2018-10-05T12:03:43.877Z,10.45
2018-10-05T12:06:11.660Z,10.80
2018-10-05T12:08:39.497Z,12.10
2018-10-05T12:11:07.403Z,10.75
2018-10-05T12:13:35.332Z,10.60
2018-10-05T12:16:03.074Z,11.22
2018-10-05T12:18:31.197Z,10.78
2018-10-05T12:20:58.953Z,11.57
2018-10-05T12:23:26.739Z,12.68
2018-10-05T12:25:54.533Z,12.98
2018-10-05T12:28:22.294Z,12.25
2018-10-05T12:30:50.105Z,12.05
2018-10-05T12:33:17.988Z,11.90
2018-10-05T12:35:45.811Z,10.93
2018-10-05T12:38:13.597Z,11.97
2018-10-05T12:40:41.464Z,11.85
2018-10-05T12:43:09.293Z,12.10
2018-10-05T12:45:37.271Z,12.00
2018-10-05T12:48:05.297Z,11.73
2018-10-05T12:50:33.201Z,10.98
2018-10-05T12:53:00.976Z,12.18
2018-10-05T12:55:28.773Z,10.45
2018-10-05T12:57:56.595Z,10.90
2018-10-05T13:00:24.383Z,10.45
2018-10-05T13:02:52.192Z,11.95
2018-10-05T13:05:19.928Z,11.43
2018-10-05T13:07:47.768Z,10.78
2018-10-05T13:10:15.561Z,11.78
2018-10-05T13:12:43.351Z,10.78
2018-10-05T13:15:11.098Z,10.30
2018-10-05T13:17:39.053Z,11.70
2018-10-05T13:20:07.017Z,11.12
2018-10-05T13:22:34.885Z,11.53
2018-10-05T13:25:02.669Z,11.28
2018-10-05T13:27:30.489Z,11.50
2018-10-05T13:29:58.246Z,11.25
2018-10-05T13:32:26.025Z,10.60
2018-10-05T13:34:53.781Z,11.60
2018-10-05T13:37:21.626Z,11.15
2018-10-05T13:39:49.398Z,10.53
2018-10-05T13:42:17.193Z,10.70
2018-10-05T13:44:45.001Z,10.70
2018-10-05T13:47:12.815Z,10.70
2018-10-05T13:49:40.676Z,10.93
2018-10-05T13:52:08.448Z,10.63
2018-10-05T13:54:36.420Z,10.90
2018-10-05T13:57:04.221Z,11.68
2018-10-05T13:59:32.009Z,11.05
2018-10-05T14:01:59.821Z,11.38
2018-10-05T14:04:27.613Z,10.58
2018-10-05T14:06:55.434Z,10.35
2018-10-05T14:09:23.253Z,11.12
2018-10-05T14:11:51.093Z,10.40
2018-10-05T14:14:18.908Z,10.55
2018-10-05T14:16:46.704Z,11.20
2018-10-05T14:19:14.557Z,11.18
2018-10-05T14:21:42.410Z,10.75
2018-10-05T14:24:10.150Z,12.13
2018-10-05T14:26:37.957Z,11.73
2018-10-05T14:29:05.996Z,10.80
2018-10-05T14:31:33.796Z,12.68
2018-10-05T14:34:01.828Z,11.63
2018-10-05T14:36:29.751Z,10.43
2018-10-05T14:38:57.544Z,13.48
2018-10-05T14:41:25.345Z,12.98
2018-10-05T14:43:53.437Z,11.80
2018-10-05T14:46:21.233Z,13.30
2018-10-05T14:48:49.081Z,12.65
2018-10-05T14:51:17.524Z,12.65
2018-10-05T14:53:45.304Z,12.68
2018-10-05T14:56:13.087Z,12.90
2018-10-05T14:58:40.892Z,12.98
2018-10-05T15:01:08.704Z,11.73
2018-10-05T15:03:36.561Z,12.58
2018-10-05T15:06:04.373Z,12.70
2018-10-05T15:08:32.168Z,12.03
2018-10-05T15:10:59.994Z,12.15
2018-10-05T15:13:27.747Z,11.88
2018-10-05T15:15:55.525Z,11.73
2018-10-05T15:18:23.308Z,11.03
2018-10-05T15:20:51.091Z,11.22
2018-10-05T15:23:18.955Z,10.65
2018-10-05T15:25:46.757Z,11.38
2018-10-05T15:28:14.554Z,11.22
2018-10-05T15:30:42.417Z,11.35
2018-10-05T15:33:10.225Z,10.68
2018-10-05T15:35:38.096Z,10.80
2018-10-05T15:38:06.048Z,10.90
2018-10-05T15:40:34.083Z,11.80
2018-10-05T15:43:01.918Z,10.72
2018-10-05T15:45:30.234Z,11.12
2018-10-05T15:47:59.468Z,11.33
2018-10-05T15:50:27.364Z,12.20
2018-10-05T15:52:55.213Z,12.18
2018-10-05T15:55:23.844Z,11.18
2018-10-05T15:57:51.697Z,10.95
2018-10-05T16:00:20.321Z,11.30
2018-10-05T16:02:48.121Z,11.60
2018-10-05T16:05:16.027Z,13.25
2018-10-05T16:07:43.857Z,13.15
2018-10-05T16:10:11.648Z,12.70
2018-10-05T16:12:39.569Z,11.57
2018-10-05T16:15:07.444Z,12.30
2018-10-05T16:17:35.384Z,12.47
2018-10-05T16:20:03.369Z,11.80
2018-10-05T16:22:31.149Z,10.97
2018-10-05T16:24:58.937Z,10.80
2018-10-05T16:27:26.700Z,10.40
2018-10-05T16:29:54.465Z,10.37
2018-10-05T16:32:22.230Z,10.83
2018-10-05T16:34:50.024Z,11.20
2018-10-05T16:37:17.892Z,11.90
2018-10-05T16:39:45.715Z,12.37
2018-10-05T16:42:13.478Z,11.80
2018-10-05T16:44:41.452Z,11.87
2018-10-05T16:47:09.232Z,11.50
2018-10-05T16:49:37.039Z,11.47
2018-10-05T16:52:04.871Z,10.40
2018-10-05T16:54:33.249Z,9.87
2018-10-05T16:57:01.646Z,9.77
2018-10-05T16:59:31.733Z,13.63
2018-10-05T17:01:59.816Z,14.50
2018-10-05T17:04:27.918Z,16.13
2018-10-05T17:06:57.809Z,13.57
2018-10-05T17:09:25.620Z,12.30
2018-10-05T17:11:53.509Z,13.30
2018-10-05T17:14:21.382Z,11.73
2018-10-05T17:16:49.268Z,12.07
2018-10-05T17:19:17.053Z,12.83
2018-10-05T17:21:45.014Z,13.13
2018-10-05T17:24:14.255Z,9.27
2018-10-05T17:26:42.416Z,9.47
2018-10-05T17:29:10.566Z,10.03
2018-10-05T17:31:38.447Z,13.13
2018-10-05T17:34:06.396Z,13.43
2018-10-05T17:36:34.189Z,13.43
2018-10-05T17:39:02.058Z,11.53
2018-10-05T17:41:29.857Z,9.10
2018-10-05T17:43:57.623Z,9.17
2018-10-05T17:46:25.772Z,8.07
2018-10-05T17:48:53.532Z,8.10
2018-10-05T17:51:21.340Z,10.03
2018-10-05T17:53:49.124Z,10.17
2018-10-05T17:56:17.053Z,9.10
2018-10-05T17:58:44.833Z,10.57
2018-10-05T18:01:12.785Z,8.83
2018-10-05T18:03:40.722Z,8.50
2018-10-05T18:06:08.705Z,8.17
2018-10-05T18:08:36.610Z,7.97
2018-10-05T18:11:04.366Z,7.33
2018-10-05T18:13:32.205Z,7.90
2018-10-05T18:16:00.033Z,7.90
2018-10-05T18:18:27.830Z,7.37
2018-10-05T18:20:55.664Z,7.90
2018-10-05T18:23:23.540Z,8.00
2018-10-05T18:25:51.440Z,8.10
2018-10-05T18:28:19.257Z,8.93
2018-10-05T18:30:47.274Z,9.00
2018-10-05T18:33:15.099Z,8.40
2018-10-05T18:35:43.021Z,7.63
2018-10-05T18:38:10.966Z,8.23
2018-10-05T18:40:39.039Z,7.33
2018-10-05T18:43:07.053Z,7.10
2018-10-05T18:45:34.912Z,6.60
2018-10-05T18:48:02.866Z,7.63
2018-10-05T18:50:30.681Z,7.57
2018-10-05T18:52:58.558Z,6.40
2018-10-05T18:55:26.471Z,6.70
2018-10-05T18:57:54.318Z,5.53
2018-10-05T19:00:22.356Z,5.90
2018-10-05T19:02:50.153Z,6.33
2018-10-05T19:05:18.015Z,5.90
2018-10-05T19:07:45.833Z,5.93
2018-10-05T19:10:13.655Z,5.37
2018-10-05T19:12:41.597Z,5.67
2018-10-05T19:15:11.048Z,5.90
2018-10-05T19:17:38.939Z,5.83
2018-10-05T19:20:06.826Z,6.87
2018-10-05T19:22:34.654Z,6.00
2018-10-05T19:25:02.448Z,6.43
2018-10-05T19:27:30.290Z,6.83
2018-10-05T19:29:58.098Z,7.00
2018-10-05T19:32:25.870Z,6.70
2018-10-05T19:34:53.681Z,6.47
2018-10-05T19:37:21.551Z,7.00
2018-10-05T19:39:49.313Z,7.20
2018-10-05T19:42:17.132Z,7.37
2018-10-05T19:44:44.980Z,5.80
2018-10-05T19:47:12.818Z,6.60
2018-10-05T19:49:40.737Z,6.47
2018-10-05T19:52:09.448Z,6.37
2018-10-05T19:54:37.241Z,6.20
2018-10-05T19:57:05.000Z,6.20
2018-10-05T19:59:32.773Z,6.23
2018-10-05T20:02:00.706Z,5.60
2018-10-05T20:04:28.449Z,6.07
2018-10-05T20:06:56.221Z,5.63
2018-10-05T20:09:23.985Z,6.33
2018-10-05T20:11:51.860Z,5.20
2018-10-05T20:14:19.661Z,5.27
2018-10-05T20:16:47.893Z,5.53
2018-10-05T20:19:15.721Z,5.30
2018-10-05T20:21:43.615Z,5.53
2018-10-05T20:24:11.480Z,5.17
2018-10-05T20:26:39.377Z,4.83
2018-10-05T20:29:07.258Z,4.70
2018-10-05T20:31:35.045Z,4.90
2018-10-05T20:34:02.828Z,4.70
2018-10-05T20:36:30.725Z,4.53
2018-10-05T20:38:58.454Z,4.87
2018-10-05T20:41:26.252Z,4.77
2018-10-05T20:43:54.381Z,5.23
2018-10-05T20:46:22.380Z,4.93
2018-10-05T20:48:50.868Z,4.90
2018-10-05T20:51:18.728Z,5.20
2018-10-05T20:53:46.553Z,5.30
2018-10-05T20:56:14.408Z,5.00
2018-10-05T20:58:42.249Z,5.20
2018-10-05T21:01:10.084Z,4.93
2018-10-05T21:03:38.011Z,4.93
2018-10-05T21:06:05.823Z,5.23
2018-10-05T21:08:33.643Z,5.00
2018-10-05T21:11:01.669Z,4.47
2018-10-05T21:13:29.525Z,4.57
2018-10-05T21:15:57.390Z,4.33
2018-10-05T21:18:25.172Z,4.00
2018-10-05T21:20:52.935Z,3.77
2018-10-05T21:23:20.698Z,4.13
2018-10-05T21:25:48.452Z,4.10
2018-10-05T21:28:16.289Z,3.80
2018-10-05T21:30:44.174Z,3.90
2018-10-05T21:33:12.169Z,3.57
2018-10-05T21:35:39.998Z,3.60
2018-10-05T21:38:07.881Z,3.70
2018-10-05T21:40:36.300Z,3.77
2018-10-05T21:43:04.111Z,4.37
2018-10-05T21:45:32.093Z,3.77
2018-10-05T21:48:00.087Z,4.13
2018-10-05T21:50:27.900Z,4.33
2018-10-05T21:52:55.705Z,3.87
2018-10-05T21:55:23.448Z,3.77
2018-10-05T21:57:51.212Z,3.93
2018-10-05T22:00:18.996Z,3.80
2018-10-05T22:02:46.768Z,3.93
2018-10-05T22:05:14.610Z,3.37
2018-10-05T22:07:42.489Z,3.20
2018-10-05T22:10:10.376Z,4.07
2018-10-05T22:12:38.205Z,4.30
2018-10-05T22:15:06.045Z,3.87
2018-10-05T22:17:33.825Z,3.80
2018-10-05T22:20:01.769Z,3.40
2018-10-05T22:22:29.531Z,3.90
2018-10-05T22:24:57.317Z,4.40
2018-10-05T22:27:25.069Z,4.23
2018-10-05T22:29:52.968Z,4.23
2018-10-05T22:32:20.756Z,4.30
2018-10-05T22:34:48.556Z,4.20
2018-10-05T22:37:16.365Z,4.43
2018-10-05T22:39:44.141Z,3.83
2018-10-05T22:42:11.976Z,4.00
2018-10-05T22:44:39.751Z,4.30
2018-10-05T22:47:07.535Z,4.30
2018-10-05T22:49:35.320Z,4.40
2018-10-05T22:52:03.141Z,4.00
2018-10-05T22:54:30.973Z,4.00
2018-10-05T22:56:58.728Z,3.93
2018-10-05T22:59:26.474Z,4.37
2018-10-05T23:01:54.245Z,3.93
2018-10-05T23:04:21.992Z,4.20
2018-10-05T23:06:49.813Z,3.90
2018-10-05T23:09:17.578Z,4.43
2018-10-05T23:11:45.476Z,4.00
2018-10-05T23:14:13.261Z,4.40
2018-10-05T23:16:41.223Z,4.17
2018-10-05T23:19:09.005Z,3.80
2018-10-05T23:21:36.768Z,3.90
2018-10-05T23:24:04.548Z,4.30
2018-10-05T23:26:32.315Z,3.90
2018-10-05T23:29:00.061Z,4.33
2018-10-05T23:31:27.829Z,4.10
2018-10-05T23:33:55.644Z,3.83
2018-10-05T23:36:23.405Z,4.30
2018-10-05T23:38:51.168Z,4.33
2018-10-05T23:41:18.940Z,4.03
2018-10-05T23:43:46.706Z,4.57
2018-10-05T23:46:14.478Z,4.23
2018-10-05T23:48:42.245Z,4.20
2018-10-05T23:51:10.209Z,3.73
2018-10-05T23:53:37.973Z,4.00
2018-10-05T23:56:05.830Z,3.47
2018-10-05T23:58:33.625Z,4.00
